sensor_id;sensor_type;location;lat;lon;timestamp;P1;durP1;ratioP1;P2;durP2;ratioP2
8462;SDS011;4268;52.506;13.462;2022-08-19T00:00:23;12.13;;;11.43;;
8462;SDS011;4268;52.506;13.462;2022-08-19T00:02:48;11.43;;;10.73;;
8462;SDS011;4268;52.506;13.462;2022-08-19T00:05:14;11.93;;;11.10;;
8462;SDS011;4268;52.506;13.462;2022-08-19T00:07:41;11.80;;;11.10;;
8462;SDS011;4268;52.506;13.462;2022-08-19T00:10:08;12.13;;;11.27;;
8462;SDS011;4268;52.506;13.462;2022-08-19T00:12:36;11.77;;;11.07;;
8462;SDS011;4268;52.506;13.462;2022-08-19T00:15:03;12.53;;;11.73;;
8462;SDS011;4268;52.506;13.462;2022-08-19T00:17:29;12.67;;;11.87;;
8462;SDS011;4268;52.506;13.462;2022-08-19T00:19:55;13.57;;;12.77;;
8462;SDS011;4268;52.506;13.462;2022-08-19T00:22:20;14.10;;;13.30;;
8462;SDS011;4268;52.506;13.462;2022-08-19T00:24:46;13.73;;;12.93;;
8462;SDS011;4268;52.506;13.462;2022-08-19T00:27:12;13.70;;;12.90;;
8462;SDS011;4268;52.506;13.462;2022-08-19T00:29:38;13.53;;;12.83;;
8462;SDS011;4268;52.506;13.462;2022-08-19T00:32:04;13.83;;;13.03;;
8462;SDS011;4268;52.506;13.462;2022-08-19T00:34:31;14.10;;;13.20;;
8462;SDS011;4268;52.506;13.462;2022-08-19T00:36:57;13.97;;;13.17;;
8462;SDS011;4268;52.506;13.462;2022-08-19T00:39:22;14.33;;;13.53;;
8462;SDS011;4268;52.506;13.462;2022-08-19T00:41:49;13.33;;;12.57;;
8462;SDS011;4268;52.506;13.462;2022-08-19T00:44:17;13.40;;;12.60;;
8462;SDS011;4268;52.506;13.462;2022-08-19T00:46:48;16.00;;;15.00;;
8462;SDS011;4268;52.506;13.462;2022-08-19T00:49:37;17.37;;;16.27;;
8462;SDS011;4268;52.506;13.462;2022-08-19T00:52:04;15.63;;;14.63;;
8462;SDS011;4268;52.506;13.462;2022-08-19T00:54:42;16.30;;;15.30;;
8462;SDS011;4268;52.506;13.462;2022-08-19T00:57:10;15.13;;;14.23;;
8462;SDS011;4268;52.506;13.462;2022-08-19T00:59:39;15.37;;;14.47;;
8462;SDS011;4268;52.506;13.462;2022-08-19T01:02:08;15.47;;;14.47;;
8462;SDS011;4268;52.506;13.462;2022-08-19T01:04:33;15.20;;;14.27;;
8462;SDS011;4268;52.506;13.462;2022-08-19T01:06:59;14.97;;;14.07;;
8462;SDS011;4268;52.506;13.462;2022-08-19T01:09:26;16.63;;;15.67;;
8462;SDS011;4268;52.506;13.462;2022-08-19T01:11:52;19.37;;;18.27;;
8462;SDS011;4268;52.506;13.462;2022-08-19T01:14:18;20.13;;;19.03;;
8462;SDS011;4268;52.506;13.462;2022-08-19T01:16:44;20.27;;;18.97;;
8462;SDS011;4268;52.506;13.462;2022-08-19T01:24:48;18.53;;;17.53;;
8462;SDS011;4268;52.506;13.462;2022-08-19T01:27:14;21.67;;;20.40;;
8462;SDS011;4268;52.506;13.462;2022-08-19T01:29:40;21.00;;;19.80;;
8462;SDS011;4268;52.506;13.462;2022-08-19T01:32:07;22.30;;;21.10;;
8462;SDS011;4268;52.506;13.462;2022-08-19T01:34:35;28.70;;;27.10;;
8462;SDS011;4268;52.506;13.462;2022-08-19T01:37:05;25.23;;;23.83;;
8462;SDS011;4268;52.506;13.462;2022-08-19T01:39:33;24.13;;;22.83;;
8462;SDS011;4268;52.506;13.462;2022-08-19T01:41:59;23.03;;;21.57;;
8462;SDS011;4268;52.506;13.462;2022-08-19T01:44:27;24.73;;;23.30;;
8462;SDS011;4268;52.506;13.462;2022-08-19T01:46:53;22.47;;;21.07;;
8462;SDS011;4268;52.506;13.462;2022-08-19T01:49:20;23.10;;;21.70;;
8462;SDS011;4268;52.506;13.462;2022-08-19T01:51:47;24.03;;;22.63;;
8462;SDS011;4268;52.506;13.462;2022-08-19T01:54:14;24.37;;;22.97;;
8462;SDS011;4268;52.506;13.462;2022-08-19T01:56:41;25.53;;;24.03;;
8462;SDS011;4268;52.506;13.462;2022-08-19T01:59:11;26.20;;;24.73;;
8462;SDS011;4268;52.506;13.462;2022-08-19T02:01:39;25.70;;;24.30;;
8462;SDS011;4268;52.506;13.462;2022-08-19T02:04:05;22.73;;;21.50;;
8462;SDS011;4268;52.506;13.462;2022-08-19T02:06:31;20.87;;;19.57;;
8462;SDS011;4268;52.506;13.462;2022-08-19T02:08:57;23.03;;;21.73;;
8462;SDS011;4268;52.506;13.462;2022-08-19T02:11:31;27.33;;;25.83;;
8462;SDS011;4268;52.506;13.462;2022-08-19T02:13:59;33.80;;;31.80;;
8462;SDS011;4268;52.506;13.462;2022-08-19T02:16:29;43.87;;;41.57;;
8462;SDS011;4268;52.506;13.462;2022-08-19T02:18:55;41.33;;;39.13;;
8462;SDS011;4268;52.506;13.462;2022-08-19T02:21:22;34.20;;;32.37;;
8462;SDS011;4268;52.506;13.462;2022-08-19T02:23:49;32.00;;;30.20;;
8462;SDS011;4268;52.506;13.462;2022-08-19T02:26:15;29.13;;;27.53;;
8462;SDS011;4268;52.506;13.462;2022-08-19T02:28:41;29.93;;;28.23;;
8462;SDS011;4268;52.506;13.462;2022-08-19T02:31:15;28.50;;;26.93;;
8462;SDS011;4268;52.506;13.462;2022-08-19T02:33:43;26.90;;;25.40;;
8462;SDS011;4268;52.506;13.462;2022-08-19T02:36:11;26.63;;;25.13;;
8462;SDS011;4268;52.506;13.462;2022-08-19T02:38:38;29.70;;;28.10;;
8462;SDS011;4268;52.506;13.462;2022-08-19T02:41:05;30.30;;;28.60;;
8462;SDS011;4268;52.506;13.462;2022-08-19T02:43:34;29.57;;;27.90;;
8462;SDS011;4268;52.506;13.462;2022-08-19T02:46:10;30.53;;;28.93;;
8462;SDS011;4268;52.506;13.462;2022-08-19T02:48:39;30.57;;;28.97;;
8462;SDS011;4268;52.506;13.462;2022-08-19T02:51:05;27.93;;;26.50;;
8462;SDS011;4268;52.506;13.462;2022-08-19T02:53:31;29.90;;;28.30;;
8462;SDS011;4268;52.506;13.462;2022-08-19T02:55:56;30.30;;;28.70;;
8462;SDS011;4268;52.506;13.462;2022-08-19T02:58:22;33.87;;;31.97;;
8462;SDS011;4268;52.506;13.462;2022-08-19T03:00:49;34.20;;;32.40;;
8462;SDS011;4268;52.506;13.462;2022-08-19T03:03:18;35.97;;;34.07;;
8462;SDS011;4268;52.506;13.462;2022-08-19T03:05:44;37.03;;;35.03;;
8462;SDS011;4268;52.506;13.462;2022-08-19T03:08:10;28.53;;;27.03;;
8462;SDS011;4268;52.506;13.462;2022-08-19T03:10:43;27.20;;;25.80;;
8462;SDS011;4268;52.506;13.462;2022-08-19T03:13:14;28.33;;;26.83;;
8462;SDS011;4268;52.506;13.462;2022-08-19T03:15:42;25.10;;;23.70;;
8462;SDS011;4268;52.506;13.462;2022-08-19T03:18:09;24.57;;;23.27;;
8462;SDS011;4268;52.506;13.462;2022-08-19T03:20:42;24.57;;;23.27;;
8462;SDS011;4268;52.506;13.462;2022-08-19T03:23:12;23.37;;;22.07;;
8462;SDS011;4268;52.506;13.462;2022-08-19T03:25:39;23.27;;;21.97;;
8462;SDS011;4268;52.506;13.462;2022-08-19T03:28:08;23.17;;;21.83;;
8462;SDS011;4268;52.506;13.462;2022-08-19T03:30:34;25.30;;;23.87;;
8462;SDS011;4268;52.506;13.462;2022-08-19T03:33:00;23.87;;;22.57;;
8462;SDS011;4268;52.506;13.462;2022-08-19T03:35:26;23.73;;;22.37;;
8462;SDS011;4268;52.506;13.462;2022-08-19T03:37:52;24.20;;;22.80;;
8462;SDS011;4268;52.506;13.462;2022-08-19T03:40:17;23.03;;;21.83;;
8462;SDS011;4268;52.506;13.462;2022-08-19T03:42:43;24.80;;;23.40;;
8462;SDS011;4268;52.506;13.462;2022-08-19T03:45:11;24.70;;;23.30;;
8462;SDS011;4268;52.506;13.462;2022-08-19T03:47:36;23.70;;;22.40;;
8462;SDS011;4268;52.506;13.462;2022-08-19T03:50:03;24.27;;;22.90;;
8462;SDS011;4268;52.506;13.462;2022-08-19T03:52:29;23.60;;;22.40;;
8462;SDS011;4268;52.506;13.462;2022-08-19T03:54:54;24.63;;;23.23;;
8462;SDS011;4268;52.506;13.462;2022-08-19T03:57:20;23.77;;;22.47;;
8462;SDS011;4268;52.506;13.462;2022-08-19T03:59:45;22.60;;;21.40;;
8462;SDS011;4268;52.506;13.462;2022-08-19T04:02:11;21.73;;;20.57;;
8462;SDS011;4268;52.506;13.462;2022-08-19T04:04:39;22.17;;;20.97;;
8462;SDS011;4268;52.506;13.462;2022-08-19T04:07:05;20.77;;;19.67;;
8462;SDS011;4268;52.506;13.462;2022-08-19T04:09:33;21.70;;;20.50;;
8462;SDS011;4268;52.506;13.462;2022-08-19T04:11:59;21.97;;;20.77;;
8462;SDS011;4268;52.506;13.462;2022-08-19T04:14:26;21.50;;;20.23;;
8462;SDS011;4268;52.506;13.462;2022-08-19T04:16:58;22.83;;;21.43;;
8462;SDS011;4268;52.506;13.462;2022-08-19T04:19:24;23.07;;;21.67;;
8462;SDS011;4268;52.506;13.462;2022-08-19T04:21:51;22.03;;;20.83;;
8462;SDS011;4268;52.506;13.462;2022-08-19T04:24:18;22.63;;;21.30;;
8462;SDS011;4268;52.506;13.462;2022-08-19T04:26:45;22.67;;;21.47;;
8462;SDS011;4268;52.506;13.462;2022-08-19T04:29:12;24.47;;;22.97;;
8462;SDS011;4268;52.506;13.462;2022-08-19T04:31:56;23.17;;;21.87;;
8462;SDS011;4268;52.506;13.462;2022-08-19T04:34:24;22.20;;;21.00;;
8462;SDS011;4268;52.506;13.462;2022-08-19T04:36:52;23.27;;;22.07;;
8462;SDS011;4268;52.506;13.462;2022-08-19T04:39:22;21.87;;;20.67;;
8462;SDS011;4268;52.506;13.462;2022-08-19T04:42:12;24.57;;;23.17;;
8462;SDS011;4268;52.506;13.462;2022-08-19T04:44:57;21.67;;;20.47;;
8462;SDS011;4268;52.506;13.462;2022-08-19T04:47:23;22.27;;;21.00;;
8462;SDS011;4268;52.506;13.462;2022-08-19T04:49:49;20.87;;;19.67;;
8462;SDS011;4268;52.506;13.462;2022-08-19T04:52:15;18.30;;;17.20;;
8462;SDS011;4268;52.506;13.462;2022-08-19T04:54:40;15.97;;;14.87;;
8462;SDS011;4268;52.506;13.462;2022-08-19T04:57:06;13.17;;;12.37;;
8462;SDS011;4268;52.506;13.462;2022-08-19T04:59:33;14.33;;;13.43;;
8462;SDS011;4268;52.506;13.462;2022-08-19T05:01:59;14.60;;;13.70;;
8462;SDS011;4268;52.506;13.462;2022-08-19T05:04:24;15.07;;;13.97;;
8462;SDS011;4268;52.506;13.462;2022-08-19T05:06:50;14.43;;;13.57;;
8462;SDS011;4268;52.506;13.462;2022-08-19T05:09:17;12.33;;;11.53;;
8462;SDS011;4268;52.506;13.462;2022-08-19T05:11:43;12.80;;;11.93;;
8462;SDS011;4268;52.506;13.462;2022-08-19T05:14:09;13.40;;;12.60;;
8462;SDS011;4268;52.506;13.462;2022-08-19T05:16:37;13.77;;;12.77;;
8462;SDS011;4268;52.506;13.462;2022-08-19T05:19:03;11.50;;;10.77;;
8462;SDS011;4268;52.506;13.462;2022-08-19T05:21:47;11.53;;;10.63;;
8462;SDS011;4268;52.506;13.462;2022-08-19T05:24:31;11.10;;;10.30;;
8462;SDS011;4268;52.506;13.462;2022-08-19T05:26:59;11.10;;;10.30;;
8462;SDS011;4268;52.506;13.462;2022-08-19T05:29:26;10.27;;;9.53;;
8462;SDS011;4268;52.506;13.462;2022-08-19T05:31:52;11.23;;;10.43;;
8462;SDS011;4268;52.506;13.462;2022-08-19T05:34:20;11.03;;;10.23;;
8462;SDS011;4268;52.506;13.462;2022-08-19T05:36:47;11.37;;;10.67;;
8462;SDS011;4268;52.506;13.462;2022-08-19T05:41:45;12.83;;;11.93;;
8462;SDS011;4268;52.506;13.462;2022-08-19T05:44:15;13.67;;;12.73;;
8462;SDS011;4268;52.506;13.462;2022-08-19T05:46:42;17.07;;;16.07;;
8462;SDS011;4268;52.506;13.462;2022-08-19T05:49:08;13.90;;;13.10;;
8462;SDS011;4268;52.506;13.462;2022-08-19T05:51:34;13.40;;;12.40;;
8462;SDS011;4268;52.506;13.462;2022-08-19T05:54:02;12.10;;;11.30;;
8462;SDS011;4268;52.506;13.462;2022-08-19T05:56:29;12.83;;;12.03;;
8462;SDS011;4268;52.506;13.462;2022-08-19T05:59:00;10.73;;;10.13;;
8462;SDS011;4268;52.506;13.462;2022-08-19T06:01:26;11.93;;;11.10;;
8462;SDS011;4268;52.506;13.462;2022-08-19T06:03:51;12.03;;;11.33;;
8462;SDS011;4268;52.506;13.462;2022-08-19T06:06:17;12.13;;;11.33;;
8462;SDS011;4268;52.506;13.462;2022-08-19T06:08:43;12.73;;;11.93;;
8462;SDS011;4268;52.506;13.462;2022-08-19T06:11:23;11.53;;;10.67;;
8462;SDS011;4268;52.506;13.462;2022-08-19T06:14:01;11.17;;;10.47;;
8462;SDS011;4268;52.506;13.462;2022-08-19T06:16:29;11.97;;;11.10;;
8462;SDS011;4268;52.506;13.462;2022-08-19T06:19:00;13.23;;;12.43;;
8462;SDS011;4268;52.506;13.462;2022-08-19T06:21:29;11.93;;;11.13;;
8462;SDS011;4268;52.506;13.462;2022-08-19T06:23:55;12.37;;;11.57;;
8462;SDS011;4268;52.506;13.462;2022-08-19T06:26:22;13.00;;;12.13;;
8462;SDS011;4268;52.506;13.462;2022-08-19T06:28:49;13.20;;;12.30;;
8462;SDS011;4268;52.506;13.462;2022-08-19T06:31:16;13.93;;;12.93;;
8462;SDS011;4268;52.506;13.462;2022-08-19T06:33:43;13.03;;;12.17;;
8462;SDS011;4268;52.506;13.462;2022-08-19T06:36:26;13.00;;;12.20;;
8462;SDS011;4268;52.506;13.462;2022-08-19T06:38:56;14.47;;;13.40;;
8462;SDS011;4268;52.506;13.462;2022-08-19T06:41:24;15.13;;;14.20;;
8462;SDS011;4268;52.506;13.462;2022-08-19T06:43:50;15.93;;;14.73;;
8462;SDS011;4268;52.506;13.462;2022-08-19T06:46:16;17.07;;;15.87;;
8462;SDS011;4268;52.506;13.462;2022-08-19T06:48:44;18.20;;;17.10;;
8462;SDS011;4268;52.506;13.462;2022-08-19T06:51:11;20.30;;;19.10;;
8462;SDS011;4268;52.506;13.462;2022-08-19T06:53:43;18.13;;;16.93;;
8462;SDS011;4268;52.506;13.462;2022-08-19T06:56:11;20.60;;;19.10;;
8462;SDS011;4268;52.506;13.462;2022-08-19T06:58:41;20.37;;;19.07;;
8462;SDS011;4268;52.506;13.462;2022-08-19T07:01:08;19.77;;;18.57;;
8462;SDS011;4268;52.506;13.462;2022-08-19T07:03:34;19.33;;;18.07;;
8462;SDS011;4268;52.506;13.462;2022-08-19T07:06:07;21.27;;;19.87;;
8462;SDS011;4268;52.506;13.462;2022-08-19T07:08:35;22.57;;;21.27;;
8462;SDS011;4268;52.506;13.462;2022-08-19T07:11:05;25.07;;;23.67;;
8462;SDS011;4268;52.506;13.462;2022-08-19T07:13:32;24.67;;;23.27;;
8462;SDS011;4268;52.506;13.462;2022-08-19T07:16:02;23.77;;;22.47;;
8462;SDS011;4268;52.506;13.462;2022-08-19T07:18:32;33.47;;;31.57;;
8462;SDS011;4268;52.506;13.462;2022-08-19T07:21:05;22.37;;;21.07;;
8462;SDS011;4268;52.506;13.462;2022-08-19T07:23:34;33.53;;;31.70;;
8462;SDS011;4268;52.506;13.462;2022-08-19T07:28:31;24.57;;;23.00;;
8462;SDS011;4268;52.506;13.462;2022-08-19T07:30:57;24.60;;;23.13;;
8462;SDS011;4268;52.506;13.462;2022-08-19T07:33:23;41.83;;;39.73;;
8462;SDS011;4268;52.506;13.462;2022-08-19T07:35:48;28.97;;;27.27;;
8462;SDS011;4268;52.506;13.462;2022-08-19T07:38:15;39.70;;;37.53;;
8462;SDS011;4268;52.506;13.462;2022-08-19T07:40:41;28.73;;;27.13;;
8462;SDS011;4268;52.506;13.462;2022-08-19T07:43:08;28.43;;;26.73;;
8462;SDS011;4268;52.506;13.462;2022-08-19T07:45:33;42.77;;;40.47;;
8462;SDS011;4268;52.506;13.462;2022-08-19T07:47:59;29.13;;;27.43;;
8462;SDS011;4268;52.506;13.462;2022-08-19T07:50:26;26.90;;;25.40;;
8462;SDS011;4268;52.506;13.462;2022-08-19T07:52:51;26.93;;;25.30;;
8462;SDS011;4268;52.506;13.462;2022-08-19T07:55:19;25.17;;;23.77;;
8462;SDS011;4268;52.506;13.462;2022-08-19T07:57:46;23.60;;;22.20;;
8462;SDS011;4268;52.506;13.462;2022-08-19T08:00:12;24.73;;;23.23;;
8462;SDS011;4268;52.506;13.462;2022-08-19T08:02:38;38.70;;;36.70;;
8462;SDS011;4268;52.506;13.462;2022-08-19T08:05:04;25.93;;;24.43;;
8462;SDS011;4268;52.506;13.462;2022-08-19T08:08:08;28.77;;;27.07;;
8462;SDS011;4268;52.506;13.462;2022-08-19T08:10:52;44.07;;;41.73;;
8462;SDS011;4268;52.506;13.462;2022-08-19T08:13:18;24.30;;;22.80;;
8462;SDS011;4268;52.506;13.462;2022-08-19T08:15:44;23.63;;;22.33;;
8462;SDS011;4268;52.506;13.462;2022-08-19T08:18:10;22.27;;;20.87;;
8462;SDS011;4268;52.506;13.462;2022-08-19T08:20:36;36.37;;;34.33;;
8462;SDS011;4268;52.506;13.462;2022-08-19T08:23:02;22.07;;;20.77;;
8462;SDS011;4268;52.506;13.462;2022-08-19T08:25:46;22.57;;;21.07;;
8462;SDS011;4268;52.506;13.462;2022-08-19T08:28:13;22.70;;;21.20;;
8462;SDS011;4268;52.506;13.462;2022-08-19T08:30:39;23.37;;;21.90;;
8462;SDS011;4268;52.506;13.462;2022-08-19T08:33:07;15.47;;;14.47;;
8462;SDS011;4268;52.506;13.462;2022-08-19T08:35:33;15.67;;;14.67;;
8462;SDS011;4268;52.506;13.462;2022-08-19T08:37:58;14.30;;;13.10;;
8462;SDS011;4268;52.506;13.462;2022-08-19T08:43:55;12.90;;;12.00;;
8462;SDS011;4268;52.506;13.462;2022-08-19T08:46:00;13.73;;;12.83;;
8462;SDS011;4268;52.506;13.462;2022-08-19T08:50:59;12.67;;;11.77;;
8462;SDS011;4268;52.506;13.462;2022-08-19T08:53:28;11.68;;;10.82;;
8462;SDS011;4268;52.506;13.462;2022-08-19T08:55:56;12.50;;;11.50;;
8462;SDS011;4268;52.506;13.462;2022-08-19T08:58:26;12.25;;;11.45;;
8462;SDS011;4268;52.506;13.462;2022-08-19T09:00:56;12.60;;;11.60;;
8462;SDS011;4268;52.506;13.462;2022-08-19T09:03:23;11.80;;;11.00;;
8462;SDS011;4268;52.506;13.462;2022-08-19T09:06:01;12.27;;;11.27;;
8462;SDS011;4268;52.506;13.462;2022-08-19T09:08:49;12.77;;;11.87;;
8462;SDS011;4268;52.506;13.462;2022-08-19T09:16:33;11.90;;;11.10;;
8462;SDS011;4268;52.506;13.462;2022-08-19T09:19:03;13.03;;;12.10;;
8462;SDS011;4268;52.506;13.462;2022-08-19T09:21:31;12.20;;;11.40;;
8462;SDS011;4268;52.506;13.462;2022-08-19T09:23:57;13.30;;;12.43;;
8462;SDS011;4268;52.506;13.462;2022-08-19T09:26:24;12.17;;;11.37;;
8462;SDS011;4268;52.506;13.462;2022-08-19T09:28:51;12.43;;;11.47;;
8462;SDS011;4268;52.506;13.462;2022-08-19T09:31:21;12.77;;;11.77;;
8462;SDS011;4268;52.506;13.462;2022-08-19T09:33:49;12.23;;;11.33;;
8462;SDS011;4268;52.506;13.462;2022-08-19T09:36:16;12.35;;;11.45;;
8462;SDS011;4268;52.506;13.462;2022-08-19T09:38:44;12.30;;;11.50;;
8462;SDS011;4268;52.506;13.462;2022-08-19T09:41:11;12.23;;;11.43;;
8462;SDS011;4268;52.506;13.462;2022-08-19T09:43:39;11.63;;;10.83;;
8462;SDS011;4268;52.506;13.462;2022-08-19T09:46:06;11.95;;;11.05;;
8462;SDS011;4268;52.506;13.462;2022-08-19T09:48:34;11.17;;;10.37;;
8462;SDS011;4268;52.506;13.462;2022-08-19T09:51:05;12.07;;;11.10;;
8462;SDS011;4268;52.506;13.462;2022-08-19T09:53:33;11.63;;;10.82;;
8462;SDS011;4268;52.506;13.462;2022-08-19T09:55:59;11.33;;;10.47;;
8462;SDS011;4268;52.506;13.462;2022-08-19T09:58:24;12.32;;;11.40;;
8462;SDS011;4268;52.506;13.462;2022-08-19T10:00:53;11.43;;;10.63;;
8462;SDS011;4268;52.506;13.462;2022-08-19T10:03:19;10.70;;;9.90;;
8462;SDS011;4268;52.506;13.462;2022-08-19T10:05:44;11.37;;;10.57;;
8462;SDS011;4268;52.506;13.462;2022-08-19T10:08:13;11.47;;;10.67;;
8462;SDS011;4268;52.506;13.462;2022-08-19T10:10:40;11.67;;;10.87;;
8462;SDS011;4268;52.506;13.462;2022-08-19T10:13:09;11.70;;;10.90;;
8462;SDS011;4268;52.506;13.462;2022-08-19T10:15:35;11.30;;;10.50;;
8462;SDS011;4268;52.506;13.462;2022-08-19T10:18:04;11.43;;;10.47;;
8462;SDS011;4268;52.506;13.462;2022-08-19T10:20:30;11.20;;;10.23;;
8462;SDS011;4268;52.506;13.462;2022-08-19T10:22:55;11.13;;;10.43;;
8462;SDS011;4268;52.506;13.462;2022-08-19T10:25:21;11.38;;;10.55;;
8462;SDS011;4268;52.506;13.462;2022-08-19T10:27:46;11.70;;;10.80;;
8462;SDS011;4268;52.506;13.462;2022-08-19T10:30:12;11.60;;;10.63;;
8462;SDS011;4268;52.506;13.462;2022-08-19T10:32:38;11.63;;;10.80;;
8462;SDS011;4268;52.506;13.462;2022-08-19T10:35:03;11.80;;;10.90;;
8462;SDS011;4268;52.506;13.462;2022-08-19T10:37:33;11.30;;;10.40;;
8462;SDS011;4268;52.506;13.462;2022-08-19T10:40:02;10.67;;;9.90;;
8462;SDS011;4268;52.506;13.462;2022-08-19T10:42:29;10.60;;;9.80;;
8462;SDS011;4268;52.506;13.462;2022-08-19T10:44:56;10.97;;;10.07;;
8462;SDS011;4268;52.506;13.462;2022-08-19T10:47:21;10.37;;;9.57;;
8462;SDS011;4268;52.506;13.462;2022-08-19T10:49:48;10.27;;;9.57;;
8462;SDS011;4268;52.506;13.462;2022-08-19T10:52:32;10.97;;;9.87;;
8462;SDS011;4268;52.506;13.462;2022-08-19T10:54:58;10.20;;;9.50;;
8462;SDS011;4268;52.506;13.462;2022-08-19T10:57:43;10.40;;;9.60;;
8462;SDS011;4268;52.506;13.462;2022-08-19T11:00:09;10.67;;;9.77;;
8462;SDS011;4268;52.506;13.462;2022-08-19T11:02:35;11.47;;;10.47;;
8462;SDS011;4268;52.506;13.462;2022-08-19T11:05:01;10.27;;;9.57;;
8462;SDS011;4268;52.506;13.462;2022-08-19T11:07:26;10.60;;;9.80;;
8462;SDS011;4268;52.506;13.462;2022-08-19T11:09:52;10.93;;;10.13;;
8462;SDS011;4268;52.506;13.462;2022-08-19T11:12:17;10.73;;;10.00;;
8462;SDS011;4268;52.506;13.462;2022-08-19T11:14:44;10.80;;;10.00;;
8462;SDS011;4268;52.506;13.462;2022-08-19T11:17:09;10.70;;;9.90;;
8462;SDS011;4268;52.506;13.462;2022-08-19T11:19:38;10.87;;;10.07;;
8462;SDS011;4268;52.506;13.462;2022-08-19T11:22:04;11.17;;;10.17;;
8462;SDS011;4268;52.506;13.462;2022-08-19T11:24:35;10.50;;;9.70;;
8462;SDS011;4268;52.506;13.462;2022-08-19T11:27:06;11.43;;;10.63;;
8462;SDS011;4268;52.506;13.462;2022-08-19T11:29:34;10.17;;;9.37;;
8462;SDS011;4268;52.506;13.462;2022-08-19T11:32:03;10.33;;;9.53;;
8462;SDS011;4268;52.506;13.462;2022-08-19T11:34:30;10.70;;;9.80;;
8462;SDS011;4268;52.506;13.462;2022-08-19T11:36:55;10.30;;;9.50;;
8462;SDS011;4268;52.506;13.462;2022-08-19T11:39:25;10.53;;;9.73;;
8462;SDS011;4268;52.506;13.462;2022-08-19T11:41:52;10.30;;;9.60;;
8462;SDS011;4268;52.506;13.462;2022-08-19T11:44:18;9.30;;;8.63;;
8462;SDS011;4268;52.506;13.462;2022-08-19T11:46:44;10.60;;;9.80;;
8462;SDS011;4268;52.506;13.462;2022-08-19T11:49:12;10.20;;;9.40;;
8462;SDS011;4268;52.506;13.462;2022-08-19T11:51:38;10.07;;;9.27;;
8462;SDS011;4268;52.506;13.462;2022-08-19T11:54:05;9.30;;;8.63;;
8462;SDS011;4268;52.506;13.462;2022-08-19T11:56:31;9.33;;;8.60;;
8462;SDS011;4268;52.506;13.462;2022-08-19T11:58:57;9.70;;;9.00;;
8462;SDS011;4268;52.506;13.462;2022-08-19T12:01:24;10.03;;;9.33;;
8462;SDS011;4268;52.506;13.462;2022-08-19T12:03:51;9.00;;;8.30;;
8462;SDS011;4268;52.506;13.462;2022-08-19T12:06:19;8.37;;;7.77;;
8462;SDS011;4268;52.506;13.462;2022-08-19T12:08:50;8.27;;;7.72;;
8462;SDS011;4268;52.506;13.462;2022-08-19T12:11:16;8.23;;;7.63;;
8462;SDS011;4268;52.506;13.462;2022-08-19T12:13:41;8.80;;;8.20;;
8462;SDS011;4268;52.506;13.462;2022-08-19T12:16:10;8.80;;;8.20;;
8462;SDS011;4268;52.506;13.462;2022-08-19T12:18:40;9.20;;;8.50;;
8462;SDS011;4268;52.506;13.462;2022-08-19T12:21:09;7.90;;;7.40;;
8462;SDS011;4268;52.506;13.462;2022-08-19T12:23:35;8.18;;;7.50;;
8462;SDS011;4268;52.506;13.462;2022-08-19T12:26:02;8.37;;;7.77;;
8462;SDS011;4268;52.506;13.462;2022-08-19T12:28:28;8.88;;;8.27;;
8462;SDS011;4268;52.506;13.462;2022-08-19T12:30:55;7.97;;;7.50;;
8462;SDS011;4268;52.506;13.462;2022-08-19T12:33:21;9.05;;;8.40;;
8462;SDS011;4268;52.506;13.462;2022-08-19T12:35:49;9.00;;;8.50;;
8462;SDS011;4268;52.506;13.462;2022-08-19T12:38:15;8.90;;;8.40;;
8462;SDS011;4268;52.506;13.462;2022-08-19T12:40:41;8.70;;;8.10;;
8462;SDS011;4268;52.506;13.462;2022-08-19T12:43:09;8.47;;;7.87;;
8462;SDS011;4268;52.506;13.462;2022-08-19T12:45:36;10.48;;;9.77;;
8462;SDS011;4268;52.506;13.462;2022-08-19T12:48:02;9.32;;;8.73;;
8462;SDS011;4268;52.506;13.462;2022-08-19T12:50:29;11.27;;;10.63;;
8462;SDS011;4268;52.506;13.462;2022-08-19T12:52:55;8.60;;;8.10;;
8462;SDS011;4268;52.506;13.462;2022-08-19T12:55:21;8.57;;;8.07;;
8462;SDS011;4268;52.506;13.462;2022-08-19T12:57:47;7.95;;;7.45;;
8462;SDS011;4268;52.506;13.462;2022-08-19T13:00:15;7.30;;;6.80;;
8462;SDS011;4268;52.506;13.462;2022-08-19T13:02:43;7.50;;;7.00;;
8462;SDS011;4268;52.506;13.462;2022-08-19T13:05:11;8.20;;;7.60;;
8462;SDS011;4268;52.506;13.462;2022-08-19T13:07:40;8.50;;;7.80;;
8462;SDS011;4268;52.506;13.462;2022-08-19T13:10:07;8.10;;;7.60;;
8462;SDS011;4268;52.506;13.462;2022-08-19T13:12:33;8.40;;;7.80;;
8462;SDS011;4268;52.506;13.462;2022-08-19T13:14:59;8.63;;;7.93;;
8462;SDS011;4268;52.506;13.462;2022-08-19T13:17:25;8.07;;;7.57;;
8462;SDS011;4268;52.506;13.462;2022-08-19T13:19:50;8.75;;;8.13;;
8462;SDS011;4268;52.506;13.462;2022-08-19T13:22:16;8.75;;;8.05;;
8462;SDS011;4268;52.506;13.462;2022-08-19T13:24:42;9.48;;;8.88;;
8462;SDS011;4268;52.506;13.462;2022-08-19T13:27:08;8.90;;;8.30;;
8462;SDS011;4268;52.506;13.462;2022-08-19T13:29:33;9.05;;;8.45;;
8462;SDS011;4268;52.506;13.462;2022-08-19T13:32:17;9.18;;;8.48;;
8462;SDS011;4268;52.506;13.462;2022-08-19T13:35:02;9.63;;;8.85;;
8462;SDS011;4268;52.506;13.462;2022-08-19T13:37:28;9.77;;;9.07;;
8462;SDS011;4268;52.506;13.462;2022-08-19T13:42:44;9.25;;;8.65;;
8462;SDS011;4268;52.506;13.462;2022-08-19T13:45:12;10.23;;;9.52;;
8462;SDS011;4268;52.506;13.462;2022-08-19T13:47:39;9.30;;;8.70;;
8462;SDS011;4268;52.506;13.462;2022-08-19T13:50:08;9.30;;;8.60;;
8462;SDS011;4268;52.506;13.462;2022-08-19T13:52:38;10.13;;;9.43;;
8462;SDS011;4268;52.506;13.462;2022-08-19T13:55:04;10.20;;;9.50;;
8462;SDS011;4268;52.506;13.462;2022-08-19T13:57:30;9.50;;;8.80;;
8462;SDS011;4268;52.506;13.462;2022-08-19T13:59:59;10.25;;;9.55;;
8462;SDS011;4268;52.506;13.462;2022-08-19T14:02:25;8.90;;;8.30;;
8462;SDS011;4268;52.506;13.462;2022-08-19T14:04:51;9.97;;;9.27;;
8462;SDS011;4268;52.506;13.462;2022-08-19T14:07:17;9.80;;;9.10;;
8462;SDS011;4268;52.506;13.462;2022-08-19T14:09:43;9.83;;;9.10;;
8462;SDS011;4268;52.506;13.462;2022-08-19T14:12:08;9.43;;;8.82;;
8462;SDS011;4268;52.506;13.462;2022-08-19T14:14:37;9.03;;;8.30;;
8462;SDS011;4268;52.506;13.462;2022-08-19T14:17:06;8.90;;;8.30;;
8462;SDS011;4268;52.506;13.462;2022-08-19T14:19:33;9.00;;;8.40;;
8462;SDS011;4268;52.506;13.462;2022-08-19T14:21:58;8.77;;;8.07;;
8462;SDS011;4268;52.506;13.462;2022-08-19T14:24:24;9.10;;;8.37;;
8462;SDS011;4268;52.506;13.462;2022-08-19T14:26:49;8.70;;;8.00;;
8462;SDS011;4268;52.506;13.462;2022-08-19T14:29:15;9.10;;;8.40;;
8462;SDS011;4268;52.506;13.462;2022-08-19T14:31:40;9.57;;;8.97;;
8462;SDS011;4268;52.506;13.462;2022-08-19T14:34:08;9.70;;;9.00;;
8462;SDS011;4268;52.506;13.462;2022-08-19T14:36:35;9.73;;;9.03;;
8462;SDS011;4268;52.506;13.462;2022-08-19T14:39:01;9.47;;;8.87;;
8462;SDS011;4268;52.506;13.462;2022-08-19T14:41:26;8.93;;;8.33;;
8462;SDS011;4268;52.506;13.462;2022-08-19T14:43:52;9.23;;;8.53;;
8462;SDS011;4268;52.506;13.462;2022-08-19T14:46:20;8.70;;;8.10;;
8462;SDS011;4268;52.506;13.462;2022-08-19T14:48:48;8.87;;;8.27;;
8462;SDS011;4268;52.506;13.462;2022-08-19T14:51:14;8.90;;;8.40;;
8462;SDS011;4268;52.506;13.462;2022-08-19T14:53:40;10.07;;;9.30;;
8462;SDS011;4268;52.506;13.462;2022-08-19T14:56:07;9.87;;;9.07;;
8462;SDS011;4268;52.506;13.462;2022-08-19T14:58:35;9.77;;;9.13;;
8462;SDS011;4268;52.506;13.462;2022-08-19T15:01:00;9.47;;;8.77;;
8462;SDS011;4268;52.506;13.462;2022-08-19T15:03:26;9.23;;;8.63;;
8462;SDS011;4268;52.506;13.462;2022-08-19T15:05:53;8.67;;;8.17;;
8462;SDS011;4268;52.506;13.462;2022-08-19T15:08:20;9.23;;;8.63;;